sensor_id;sensor_type;location;lat;lon;timestamp;P1;durP1;ratioP1;P2;durP2;ratioP2
9142;SDS011;54072;47.410;8.446;2023-04-15T00:00:32;3.10;;;2.10;;
9142;SDS011;54072;47.410;8.446;2023-04-15T00:03:00;2.90;;;1.83;;
9142;SDS011;54072;47.410;8.446;2023-04-15T00:05:28;4.77;;;2.10;;
9142;SDS011;54072;47.410;8.446;2023-04-15T00:07:56;2.07;;;1.87;;
9142;SDS011;54072;47.410;8.446;2023-04-15T00:10:24;5.23;;;2.17;;
9142;SDS011;54072;47.410;8.446;2023-04-15T00:12:53;4.10;;;2.03;;
9142;SDS011;54072;47.410;8.446;2023-04-15T00:15:20;3.93;;;2.03;;
9142;SDS011;54072;47.410;8.446;2023-04-15T00:17:48;4.57;;;2.27;;
9142;SDS011;54072;47.410;8.446;2023-04-15T00:20:16;2.90;;;2.07;;
9142;SDS011;54072;47.410;8.446;2023-04-15T00:22:43;2.27;;;2.03;;
9142;SDS011;54072;47.410;8.446;2023-04-15T00:25:11;2.90;;;1.93;;
9142;SDS011;54072;47.410;8.446;2023-04-15T00:27:40;4.67;;;1.97;;
9142;SDS011;54072;47.410;8.446;2023-04-15T00:30:09;4.03;;;2.03;;
9142;SDS011;54072;47.410;8.446;2023-04-15T00:32:37;4.20;;;2.00;;
9142;SDS011;54072;47.410;8.446;2023-04-15T00:35:05;4.60;;;2.30;;
9142;SDS011;54072;47.410;8.446;2023-04-15T00:37:32;4.27;;;2.10;;
9142;SDS011;54072;47.410;8.446;2023-04-15T00:40:02;4.23;;;2.53;;
9142;SDS011;54072;47.410;8.446;2023-04-15T00:42:33;3.13;;;2.40;;
9142;SDS011;54072;47.410;8.446;2023-04-15T00:45:01;2.83;;;2.37;;
9142;SDS011;54072;47.410;8.446;2023-04-15T00:47:30;3.33;;;2.10;;
9142;SDS011;54072;47.410;8.446;2023-04-15T00:49:58;3.10;;;2.17;;
9142;SDS011;54072;47.410;8.446;2023-04-15T00:52:25;4.97;;;2.30;;
9142;SDS011;54072;47.410;8.446;2023-04-15T00:54:54;4.40;;;2.00;;
9142;SDS011;54072;47.410;8.446;2023-04-15T00:57:21;5.00;;;2.10;;
9142;SDS011;54072;47.410;8.446;2023-04-15T00:59:49;3.20;;;2.10;;
9142;SDS011;54072;47.410;8.446;2023-04-15T01:02:17;4.33;;;1.73;;
9142;SDS011;54072;47.410;8.446;2023-04-15T01:04:46;2.63;;;1.90;;
9142;SDS011;54072;47.410;8.446;2023-04-15T01:07:14;2.20;;;2.00;;
9142;SDS011;54072;47.410;8.446;2023-04-15T01:09:42;3.30;;;1.60;;
9142;SDS011;54072;47.410;8.446;2023-04-15T01:12:11;1.87;;;1.70;;
9142;SDS011;54072;47.410;8.446;2023-04-15T01:14:39;3.37;;;1.60;;
9142;SDS011;54072;47.410;8.446;2023-04-15T01:17:06;2.27;;;1.50;;
9142;SDS011;54072;47.410;8.446;2023-04-15T01:19:35;1.67;;;1.57;;
9142;SDS011;54072;47.410;8.446;2023-04-15T01:22:04;1.97;;;1.60;;
9142;SDS011;54072;47.410;8.446;2023-04-15T01:24:32;2.43;;;1.63;;
9142;SDS011;54072;47.410;8.446;2023-04-15T01:27:00;2.80;;;1.80;;
9142;SDS011;54072;47.410;8.446;2023-04-15T01:29:29;4.17;;;1.67;;
9142;SDS011;54072;47.410;8.446;2023-04-15T01:31:57;2.20;;;1.63;;
9142;SDS011;54072;47.410;8.446;2023-04-15T01:34:24;2.40;;;1.73;;
9142;SDS011;54072;47.410;8.446;2023-04-15T01:36:52;3.67;;;1.77;;
9142;SDS011;54072;47.410;8.446;2023-04-15T01:39:19;3.57;;;1.73;;
9142;SDS011;54072;47.410;8.446;2023-04-15T01:41:47;2.70;;;1.70;;
9142;SDS011;54072;47.410;8.446;2023-04-15T01:44:16;2.93;;;1.67;;
9142;SDS011;54072;47.410;8.446;2023-04-15T01:46:43;3.20;;;1.77;;
9142;SDS011;54072;47.410;8.446;2023-04-15T01:49:11;3.23;;;1.60;;
9142;SDS011;54072;47.410;8.446;2023-04-15T01:51:39;3.97;;;1.90;;
9142;SDS011;54072;47.410;8.446;2023-04-15T01:54:06;6.00;;;2.80;;
9142;SDS011;54072;47.410;8.446;2023-04-15T01:56:34;4.93;;;2.67;;
9142;SDS011;54072;47.410;8.446;2023-04-15T01:59:01;4.23;;;2.00;;
9142;SDS011;54072;47.410;8.446;2023-04-15T02:01:31;2.20;;;1.70;;
9142;SDS011;54072;47.410;8.446;2023-04-15T02:03:59;1.97;;;1.70;;
9142;SDS011;54072;47.410;8.446;2023-04-15T02:06:26;5.40;;;1.70;;
9142;SDS011;54072;47.410;8.446;2023-04-15T02:08:54;2.27;;;1.57;;
9142;SDS011;54072;47.410;8.446;2023-04-15T02:11:21;1.77;;;1.47;;
9142;SDS011;54072;47.410;8.446;2023-04-15T02:13:49;3.07;;;1.80;;
9142;SDS011;54072;47.410;8.446;2023-04-15T02:16:17;2.77;;;1.67;;
9142;SDS011;54072;47.410;8.446;2023-04-15T02:18:46;3.73;;;1.73;;
9142;SDS011;54072;47.410;8.446;2023-04-15T02:21:14;2.37;;;1.60;;
9142;SDS011;54072;47.410;8.446;2023-04-15T02:23:42;2.60;;;1.60;;
9142;SDS011;54072;47.410;8.446;2023-04-15T02:26:10;3.90;;;1.70;;
9142;SDS011;54072;47.410;8.446;2023-04-15T02:28:38;2.70;;;1.57;;
9142;SDS011;54072;47.410;8.446;2023-04-15T02:31:05;2.33;;;1.77;;
9142;SDS011;54072;47.410;8.446;2023-04-15T02:33:34;2.03;;;1.63;;
9142;SDS011;54072;47.410;8.446;2023-04-15T02:36:04;3.53;;;1.50;;
9142;SDS011;54072;47.410;8.446;2023-04-15T02:38:32;7.37;;;3.87;;
9142;SDS011;54072;47.410;8.446;2023-04-15T02:41:00;6.27;;;3.10;;
9142;SDS011;54072;47.410;8.446;2023-04-15T02:43:28;12.60;;;4.70;;
9142;SDS011;54072;47.410;8.446;2023-04-15T02:45:55;18.10;;;7.20;;
9142;SDS011;54072;47.410;8.446;2023-04-15T02:48:23;14.93;;;6.10;;
9142;SDS011;54072;47.410;8.446;2023-04-15T02:50:50;5.57;;;3.73;;
9142;SDS011;54072;47.410;8.446;2023-04-15T02:53:19;7.00;;;4.53;;
9142;SDS011;54072;47.410;8.446;2023-04-15T02:55:47;4.17;;;2.63;;
9142;SDS011;54072;47.410;8.446;2023-04-15T02:58:14;3.43;;;1.80;;
9142;SDS011;54072;47.410;8.446;2023-04-15T03:00:42;3.27;;;2.23;;
9142;SDS011;54072;47.410;8.446;2023-04-15T03:03:09;6.50;;;2.20;;
9142;SDS011;54072;47.410;8.446;2023-04-15T03:05:40;3.67;;;2.13;;
9142;SDS011;54072;47.410;8.446;2023-04-15T03:08:07;3.17;;;1.87;;
9142;SDS011;54072;47.410;8.446;2023-04-15T03:10:36;2.37;;;1.80;;
9142;SDS011;54072;47.410;8.446;2023-04-15T03:13:04;1.83;;;1.70;;
9142;SDS011;54072;47.410;8.446;2023-04-15T03:15:31;3.00;;;1.87;;
9142;SDS011;54072;47.410;8.446;2023-04-15T03:17:59;1.60;;;1.50;;
9142;SDS011;54072;47.410;8.446;2023-04-15T03:20:27;3.03;;;1.90;;
9142;SDS011;54072;47.410;8.446;2023-04-15T03:22:54;2.93;;;2.10;;
9142;SDS011;54072;47.410;8.446;2023-04-15T03:25:22;4.00;;;1.80;;
9142;SDS011;54072;47.410;8.446;2023-04-15T03:27:51;3.70;;;1.70;;
9142;SDS011;54072;47.410;8.446;2023-04-15T03:30:18;3.93;;;1.90;;
9142;SDS011;54072;47.410;8.446;2023-04-15T03:32:46;4.37;;;2.23;;
9142;SDS011;54072;47.410;8.446;2023-04-15T03:35:13;4.93;;;4.53;;
9142;SDS011;54072;47.410;8.446;2023-04-15T03:37:41;3.93;;;3.03;;
9142;SDS011;54072;47.410;8.446;2023-04-15T03:40:08;3.90;;;2.40;;
9142;SDS011;54072;47.410;8.446;2023-04-15T03:42:36;3.43;;;2.10;;
9142;SDS011;54072;47.410;8.446;2023-04-15T03:45:06;3.13;;;2.03;;
9142;SDS011;54072;47.410;8.446;2023-04-15T03:47:33;2.60;;;2.00;;
9142;SDS011;54072;47.410;8.446;2023-04-15T03:50:01;2.70;;;1.67;;
9142;SDS011;54072;47.410;8.446;2023-04-15T03:52:29;3.37;;;1.90;;
9142;SDS011;54072;47.410;8.446;2023-04-15T03:54:56;2.30;;;1.80;;
9142;SDS011;54072;47.410;8.446;2023-04-15T03:57:23;2.20;;;2.00;;
9142;SDS011;54072;47.410;8.446;2023-04-15T03:59:51;3.47;;;1.90;;
9142;SDS011;54072;47.410;8.446;2023-04-15T04:02:20;3.30;;;2.00;;
9142;SDS011;54072;47.410;8.446;2023-04-15T04:04:48;2.50;;;1.93;;
9142;SDS011;54072;47.410;8.446;2023-04-15T04:07:16;2.97;;;1.90;;
9142;SDS011;54072;47.410;8.446;2023-04-15T04:09:44;4.70;;;2.50;;
9142;SDS011;54072;47.410;8.446;2023-04-15T04:12:12;5.23;;;2.20;;
9142;SDS011;54072;47.410;8.446;2023-04-15T04:14:40;4.17;;;2.10;;
9142;SDS011;54072;47.410;8.446;2023-04-15T04:17:07;2.07;;;1.70;;
9142;SDS011;54072;47.410;8.446;2023-04-15T04:19:36;4.70;;;1.90;;
9142;SDS011;54072;47.410;8.446;2023-04-15T04:22:04;3.80;;;2.00;;
9142;SDS011;54072;47.410;8.446;2023-04-15T04:24:31;3.47;;;1.97;;
9142;SDS011;54072;47.410;8.446;2023-04-15T04:26:59;3.00;;;1.87;;
9142;SDS011;54072;47.410;8.446;2023-04-15T04:29:27;3.53;;;2.00;;
9142;SDS011;54072;47.410;8.446;2023-04-15T04:31:54;2.63;;;1.80;;
9142;SDS011;54072;47.410;8.446;2023-04-15T04:34:22;4.20;;;2.00;;
9142;SDS011;54072;47.410;8.446;2023-04-15T04:36:51;3.23;;;2.00;;
9142;SDS011;54072;47.410;8.446;2023-04-15T04:39:18;3.10;;;1.80;;
9142;SDS011;54072;47.410;8.446;2023-04-15T04:41:46;2.10;;;1.87;;
9142;SDS011;54072;47.410;8.446;2023-04-15T04:44:13;3.33;;;1.93;;
9142;SDS011;54072;47.410;8.446;2023-04-15T04:46:41;3.07;;;1.97;;
9142;SDS011;54072;47.410;8.446;2023-04-15T04:49:09;2.40;;;2.20;;
9142;SDS011;54072;47.410;8.446;2023-04-15T04:51:36;4.00;;;2.20;;
9142;SDS011;54072;47.410;8.446;2023-04-15T04:54:06;4.83;;;2.40;;
9142;SDS011;54072;47.410;8.446;2023-04-15T04:56:33;2.90;;;2.00;;
9142;SDS011;54072;47.410;8.446;2023-04-15T04:59:01;4.13;;;1.90;;
9142;SDS011;54072;47.410;8.446;2023-04-15T05:01:28;3.67;;;1.73;;
9142;SDS011;54072;47.410;8.446;2023-04-15T05:03:56;2.63;;;1.60;;
9142;SDS011;54072;47.410;8.446;2023-04-15T05:06:24;2.90;;;2.20;;
9142;SDS011;54072;47.410;8.446;2023-04-15T05:08:51;3.93;;;2.20;;
9142;SDS011;54072;47.410;8.446;2023-04-15T05:11:20;3.03;;;2.13;;
9142;SDS011;54072;47.410;8.446;2023-04-15T05:13:48;2.93;;;2.00;;
9142;SDS011;54072;47.410;8.446;2023-04-15T05:16:15;2.50;;;2.10;;
9142;SDS011;54072;47.410;8.446;2023-04-15T05:18:45;3.07;;;2.20;;
9142;SDS011;54072;47.410;8.446;2023-04-15T05:21:12;3.27;;;2.30;;
9142;SDS011;54072;47.410;8.446;2023-04-15T05:23:40;2.73;;;2.00;;
9142;SDS011;54072;47.410;8.446;2023-04-15T05:26:07;2.40;;;1.90;;
9142;SDS011;54072;47.410;8.446;2023-04-15T05:28:36;2.37;;;2.00;;
9142;SDS011;54072;47.410;8.446;2023-04-15T05:31:04;3.50;;;1.97;;
9142;SDS011;54072;47.410;8.446;2023-04-15T05:33:32;4.10;;;2.30;;
9142;SDS011;54072;47.410;8.446;2023-04-15T05:36:00;2.33;;;2.03;;
9142;SDS011;54072;47.410;8.446;2023-04-15T05:38:27;5.60;;;2.20;;
9142;SDS011;54072;47.410;8.446;2023-04-15T05:40:55;3.97;;;2.20;;
9142;SDS011;54072;47.410;8.446;2023-04-15T05:43:22;4.97;;;2.27;;
9142;SDS011;54072;47.410;8.446;2023-04-15T05:45:51;3.50;;;1.97;;
9142;SDS011;54072;47.410;8.446;2023-04-15T05:48:19;5.17;;;2.20;;
9142;SDS011;54072;47.410;8.446;2023-04-15T05:50:46;6.07;;;2.20;;
9142;SDS011;54072;47.410;8.446;2023-04-15T05:53:14;3.93;;;2.10;;
9142;SDS011;54072;47.410;8.446;2023-04-15T05:55:42;7.00;;;2.60;;
9142;SDS011;54072;47.410;8.446;2023-04-15T05:58:09;3.20;;;2.23;;
9142;SDS011;54072;47.410;8.446;2023-04-15T06:00:37;3.13;;;2.20;;
9142;SDS011;54072;47.410;8.446;2023-04-15T06:03:07;2.27;;;1.97;;
9142;SDS011;54072;47.410;8.446;2023-04-15T06:05:34;2.20;;;2.00;;
9142;SDS011;54072;47.410;8.446;2023-04-15T06:08:02;3.10;;;2.13;;
9142;SDS011;54072;47.410;8.446;2023-04-15T06:10:29;2.83;;;2.23;;
9142;SDS011;54072;47.410;8.446;2023-04-15T06:13:01;3.50;;;2.20;;
9142;SDS011;54072;47.410;8.446;2023-04-15T06:15:31;3.83;;;2.07;;
9142;SDS011;54072;47.410;8.446;2023-04-15T06:17:59;2.40;;;2.00;;
9142;SDS011;54072;47.410;8.446;2023-04-15T06:20:27;4.30;;;2.27;;
9142;SDS011;54072;47.410;8.446;2023-04-15T06:22:55;3.30;;;1.93;;
9142;SDS011;54072;47.410;8.446;2023-04-15T06:25:23;5.47;;;2.57;;
9142;SDS011;54072;47.410;8.446;2023-04-15T06:27:51;3.00;;;1.77;;
9142;SDS011;54072;47.410;8.446;2023-04-15T06:30:18;2.77;;;2.20;;
9142;SDS011;54072;47.410;8.446;2023-04-15T06:32:46;2.37;;;2.10;;
9142;SDS011;54072;47.410;8.446;2023-04-15T06:35:14;1.93;;;1.67;;
9142;SDS011;54072;47.410;8.446;2023-04-15T06:37:43;3.67;;;1.90;;
9142;SDS011;54072;47.410;8.446;2023-04-15T06:40:11;4.07;;;1.80;;
9142;SDS011;54072;47.410;8.446;2023-04-15T06:42:38;3.70;;;2.20;;
9142;SDS011;54072;47.410;8.446;2023-04-15T06:45:07;1.97;;;1.87;;
9142;SDS011;54072;47.410;8.446;2023-04-15T06:47:35;2.43;;;1.90;;
9142;SDS011;54072;47.410;8.446;2023-04-15T06:50:02;2.63;;;1.80;;
9142;SDS011;54072;47.410;8.446;2023-04-15T06:52:30;2.40;;;1.90;;
9142;SDS011;54072;47.410;8.446;2023-04-15T06:54:59;3.60;;;1.93;;
9142;SDS011;54072;47.410;8.446;2023-04-15T06:57:27;2.57;;;1.90;;
9142;SDS011;54072;47.410;8.446;2023-04-15T06:59:55;1.97;;;1.80;;
9142;SDS011;54072;47.410;8.446;2023-04-15T07:02:22;3.67;;;2.10;;
9142;SDS011;54072;47.410;8.446;2023-04-15T07:04:50;2.73;;;2.40;;
9142;SDS011;54072;47.410;8.446;2023-04-15T07:07:17;2.10;;;1.90;;
9142;SDS011;54072;47.410;8.446;2023-04-15T07:09:45;2.13;;;1.90;;
9142;SDS011;54072;47.410;8.446;2023-04-15T07:12:14;2.50;;;1.87;;
9142;SDS011;54072;47.410;8.446;2023-04-15T07:14:41;2.33;;;2.03;;
9142;SDS011;54072;47.410;8.446;2023-04-15T07:17:09;2.20;;;1.97;;
9142;SDS011;54072;47.410;8.446;2023-04-15T07:19:37;2.57;;;2.00;;
9142;SDS011;54072;47.410;8.446;2023-04-15T07:22:05;3.37;;;1.90;;
9142;SDS011;54072;47.410;8.446;2023-04-15T07:24:33;3.17;;;1.90;;
9142;SDS011;54072;47.410;8.446;2023-04-15T07:27:00;1.83;;;1.73;;
9142;SDS011;54072;47.410;8.446;2023-04-15T07:29:30;2.33;;;1.60;;
9142;SDS011;54072;47.410;8.446;2023-04-15T07:31:58;3.20;;;1.87;;
9142;SDS011;54072;47.410;8.446;2023-04-15T07:34:26;2.60;;;1.80;;
9142;SDS011;54072;47.410;8.446;2023-04-15T07:36:54;2.17;;;1.97;;
9142;SDS011;54072;47.410;8.446;2023-04-15T07:39:21;2.83;;;2.03;;
9142;SDS011;54072;47.410;8.446;2023-04-15T07:41:49;2.40;;;2.00;;
9142;SDS011;54072;47.410;8.446;2023-04-15T07:44:16;2.70;;;2.50;;
9142;SDS011;54072;47.410;8.446;2023-04-15T07:46:46;1.90;;;1.80;;
9142;SDS011;54072;47.410;8.446;2023-04-15T07:49:13;2.90;;;2.30;;
9142;SDS011;54072;47.410;8.446;2023-04-15T07:51:41;4.47;;;2.40;;
9142;SDS011;54072;47.410;8.446;2023-04-15T07:54:09;4.80;;;2.30;;
9142;SDS011;54072;47.410;8.446;2023-04-15T07:56:37;4.97;;;2.30;;
9142;SDS011;54072;47.410;8.446;2023-04-15T07:59:04;3.43;;;2.17;;
9142;SDS011;54072;47.410;8.446;2023-04-15T08:01:32;5.70;;;2.20;;
9142;SDS011;54072;47.410;8.446;2023-04-15T08:04:01;3.00;;;2.30;;
9142;SDS011;54072;47.410;8.446;2023-04-15T08:06:28;5.87;;;2.40;;
9142;SDS011;54072;47.410;8.446;2023-04-15T08:08:56;3.33;;;2.30;;
9142;SDS011;54072;47.410;8.446;2023-04-15T08:11:23;3.37;;;2.20;;
9142;SDS011;54072;47.410;8.446;2023-04-15T08:13:51;3.33;;;2.37;;
9142;SDS011;54072;47.410;8.446;2023-04-15T08:16:19;2.97;;;2.30;;
9142;SDS011;54072;47.410;8.446;2023-04-15T08:18:47;2.80;;;2.00;;
9142;SDS011;54072;47.410;8.446;2023-04-15T08:21:17;2.97;;;2.07;;
9142;SDS011;54072;47.410;8.446;2023-04-15T08:23:45;4.90;;;2.50;;
9142;SDS011;54072;47.410;8.446;2023-04-15T08:26:13;4.30;;;2.10;;
9142;SDS011;54072;47.410;8.446;2023-04-15T08:28:41;3.73;;;2.10;;
9142;SDS011;54072;47.410;8.446;2023-04-15T08:31:09;1.93;;;1.80;;
9142;SDS011;54072;47.410;8.446;2023-04-15T08:33:36;2.33;;;1.83;;
9142;SDS011;54072;47.410;8.446;2023-04-15T08:36:04;2.33;;;1.83;;
9142;SDS011;54072;47.410;8.446;2023-04-15T08:38:34;3.23;;;1.80;;
9142;SDS011;54072;47.410;8.446;2023-04-15T08:41:03;4.57;;;2.27;;
9142;SDS011;54072;47.410;8.446;2023-04-15T08:43:32;2.33;;;1.90;;
9142;SDS011;54072;47.410;8.446;2023-04-15T08:46:00;2.33;;;1.90;;
9142;SDS011;54072;47.410;8.446;2023-04-15T08:48:28;3.97;;;2.23;;
9142;SDS011;54072;47.410;8.446;2023-04-15T08:50:58;4.03;;;1.90;;
9142;SDS011;54072;47.410;8.446;2023-04-15T08:53:27;1.70;;;1.60;;
9142;SDS011;54072;47.410;8.446;2023-04-15T08:55:56;2.63;;;1.80;;
9142;SDS011;54072;47.410;8.446;2023-04-15T08:58:25;2.00;;;1.80;;
9142;SDS011;54072;47.410;8.446;2023-04-15T09:00:53;1.73;;;1.63;;
9142;SDS011;54072;47.410;8.446;2023-04-15T09:03:21;2.07;;;1.70;;
9142;SDS011;54072;47.410;8.446;2023-04-15T09:05:50;3.10;;;1.87;;
9142;SDS011;54072;47.410;8.446;2023-04-15T09:08:18;2.57;;;1.70;;
9142;SDS011;54072;47.410;8.446;2023-04-15T09:10:46;3.53;;;2.10;;
9142;SDS011;54072;47.410;8.446;2023-04-15T09:13:13;2.77;;;1.90;;
9142;SDS011;54072;47.410;8.446;2023-04-15T09:15:42;2.33;;;2.00;;
9142;SDS011;54072;47.410;8.446;2023-04-15T09:18:10;2.10;;;1.90;;
9142;SDS011;54072;47.410;8.446;2023-04-15T09:20:38;2.83;;;1.83;;
9142;SDS011;54072;47.410;8.446;2023-04-15T09:23:10;5.50;;;2.00;;
9142;SDS011;54072;47.410;8.446;2023-04-15T09:25:38;4.53;;;1.90;;
9142;SDS011;54072;47.410;8.446;2023-04-15T09:28:07;2.73;;;1.97;;
9142;SDS011;54072;47.410;8.446;2023-04-15T09:30:35;2.67;;;1.87;;
9142;SDS011;54072;47.410;8.446;2023-04-15T09:33:04;3.20;;;2.10;;
9142;SDS011;54072;47.410;8.446;2023-04-15T09:35:33;2.20;;;2.00;;
9142;SDS011;54072;47.410;8.446;2023-04-15T09:38:02;2.70;;;1.90;;
9142;SDS011;54072;47.410;8.446;2023-04-15T09:40:30;3.47;;;2.10;;
9142;SDS011;54072;47.410;8.446;2023-04-15T09:42:58;2.73;;;2.30;;
9142;SDS011;54072;47.410;8.446;2023-04-15T09:45:27;2.20;;;2.00;;
9142;SDS011;54072;47.410;8.446;2023-04-15T09:47:55;4.33;;;2.07;;
9142;SDS011;54072;47.410;8.446;2023-04-15T09:50:27;3.60;;;2.20;;
9142;SDS011;54072;47.410;8.446;2023-04-15T09:52:55;4.40;;;2.20;;
9142;SDS011;54072;47.410;8.446;2023-04-15T09:55:24;2.63;;;2.10;;
9142;SDS011;54072;47.410;8.446;2023-04-15T09:57:52;2.27;;;2.07;;
9142;SDS011;54072;47.410;8.446;2023-04-15T10:00:20;2.60;;;1.80;;
9142;SDS011;54072;47.410;8.446;2023-04-15T10:02:47;3.30;;;2.10;;
9142;SDS011;54072;47.410;8.446;2023-04-15T10:05:15;3.17;;;1.90;;
9142;SDS011;54072;47.410;8.446;2023-04-15T10:07:44;4.63;;;2.10;;
9142;SDS011;54072;47.410;8.446;2023-04-15T10:10:13;3.57;;;1.90;;
9142;SDS011;54072;47.410;8.446;2023-04-15T10:12:41;1.83;;;1.73;;
9142;SDS011;54072;47.410;8.446;2023-04-15T10:15:10;3.03;;;2.13;;
9142;SDS011;54072;47.410;8.446;2023-04-15T10:17:39;3.30;;;2.43;;
9142;SDS011;54072;47.410;8.446;2023-04-15T10:20:10;2.43;;;2.03;;
9142;SDS011;54072;47.410;8.446;2023-04-15T10:22:41;3.40;;;2.40;;
9142;SDS011;54072;47.410;8.446;2023-04-15T10:25:11;4.07;;;2.13;;
9142;SDS011;54072;47.410;8.446;2023-04-15T10:27:39;2.50;;;2.30;;
9142;SDS011;54072;47.410;8.446;2023-04-15T10:30:07;3.30;;;2.40;;
9142;SDS011;54072;47.410;8.446;2023-04-15T10:32:35;3.80;;;2.20;;
9142;SDS011;54072;47.410;8.446;2023-04-15T10:35:03;2.63;;;2.43;;
9142;SDS011;54072;47.410;8.446;2023-04-15T10:37:33;3.07;;;2.40;;
9142;SDS011;54072;47.410;8.446;2023-04-15T10:40:00;2.77;;;2.40;;
9142;SDS011;54072;47.410;8.446;2023-04-15T10:42:49;4.87;;;2.57;;
9142;SDS011;54072;47.410;8.446;2023-04-15T10:45:17;3.07;;;2.50;;
9142;SDS011;54072;47.410;8.446;2023-04-15T10:47:45;4.53;;;2.57;;
9142;SDS011;54072;47.410;8.446;2023-04-15T10:50:12;3.80;;;2.30;;
9142;SDS011;54072;47.410;8.446;2023-04-15T10:52:40;2.77;;;2.23;;
9142;SDS011;54072;47.410;8.446;2023-04-15T10:55:11;2.57;;;2.07;;
9142;SDS011;54072;47.410;8.446;2023-04-15T10:57:40;2.60;;;1.90;;
9142;SDS011;54072;47.410;8.446;2023-04-15T11:00:12;3.33;;;2.00;;
9142;SDS011;54072;47.410;8.446;2023-04-15T11:02:41;2.30;;;2.10;;
9142;SDS011;54072;47.410;8.446;2023-04-15T11:05:09;2.73;;;2.20;;
9142;SDS011;54072;47.410;8.446;2023-04-15T11:07:46;2.03;;;1.93;;
9142;SDS011;54072;47.410;8.446;2023-04-15T11:12:57;3.47;;;2.33;;
9142;SDS011;54072;47.410;8.446;2023-04-15T11:15:28;2.57;;;2.10;;
9142;SDS011;54072;47.410;8.446;2023-04-15T11:17:56;2.20;;;2.00;;
9142;SDS011;54072;47.410;8.446;2023-04-15T11:20:24;4.70;;;2.30;;
9142;SDS011;54072;47.410;8.446;2023-04-15T11:22:52;3.40;;;2.20;;
9142;SDS011;54072;47.410;8.446;2023-04-15T11:25:23;4.73;;;2.40;;
9142;SDS011;54072;47.410;8.446;2023-04-15T11:27:51;3.33;;;2.50;;
9142;SDS011;54072;47.410;8.446;2023-04-15T11:30:20;3.67;;;2.50;;
9142;SDS011;54072;47.410;8.446;2023-04-15T11:32:50;3.33;;;2.23;;
9142;SDS011;54072;47.410;8.446;2023-04-15T11:35:18;3.10;;;2.20;;
9142;SDS011;54072;47.410;8.446;2023-04-15T11:37:46;2.63;;;2.10;;
9142;SDS011;54072;47.410;8.446;2023-04-15T11:40:15;3.17;;;2.00;;
9142;SDS011;54072;47.410;8.446;2023-04-15T11:42:43;2.60;;;2.00;;
9142;SDS011;54072;47.410;8.446;2023-04-15T11:45:14;3.13;;;2.13;;
9142;SDS011;54072;47.410;8.446;2023-04-15T11:47:41;3.83;;;2.20;;
9142;SDS011;54072;47.410;8.446;2023-04-15T11:50:14;3.97;;;1.80;;
9142;SDS011;54072;47.410;8.446;2023-04-15T11:52:51;3.77;;;2.03;;
9142;SDS011;54072;47.410;8.446;2023-04-15T11:55:18;2.67;;;1.80;;
9142;SDS011;54072;47.410;8.446;2023-04-15T11:57:46;2.70;;;2.40;;
9142;SDS011;54072;47.410;8.446;2023-04-15T12:00:13;3.03;;;2.20;;
9142;SDS011;54072;47.410;8.446;2023-04-15T12:02:42;2.83;;;2.20;;
9142;SDS011;54072;47.410;8.446;2023-04-15T12:05:10;2.03;;;1.87;;
9142;SDS011;54072;47.410;8.446;2023-04-15T12:10:21;2.60;;;2.10;;
9142;SDS011;54072;47.410;8.446;2023-04-15T12:12:51;2.13;;;1.97;;
9142;SDS011;54072;47.410;8.446;2023-04-15T12:15:20;3.10;;;1.87;;
9142;SDS011;54072;47.410;8.446;2023-04-15T12:17:48;2.73;;;2.20;;
9142;SDS011;54072;47.410;8.446;2023-04-15T12:20:19;3.57;;;2.33;;
9142;SDS011;54072;47.410;8.446;2023-04-15T12:22:47;1.93;;;1.83;;
9142;SDS011;54072;47.410;8.446;2023-04-15T12:25:14;2.67;;;1.97;;
9142;SDS011;54072;47.410;8.446;2023-04-15T12:27:50;2.17;;;2.00;;
9142;SDS011;54072;47.410;8.446;2023-04-15T12:30:18;2.33;;;2.03;;
9142;SDS011;54072;47.410;8.446;2023-04-15T12:32:46;2.10;;;2.00;;
9142;SDS011;54072;47.410;8.446;2023-04-15T12:35:13;2.40;;;1.90;;
9142;SDS011;54072;47.410;8.446;2023-04-15T12:37:41;2.27;;;1.93;;
9142;SDS011;54072;47.410;8.446;2023-04-15T12:40:09;2.20;;;2.00;;
9142;SDS011;54072;47.410;8.446;2023-04-15T12:42:37;2.30;;;2.10;;
9142;SDS011;54072;47.410;8.446;2023-04-15T12:45:06;2.30;;;2.10;;
9142;SDS011;54072;47.410;8.446;2023-04-15T12:47:34;2.17;;;1.97;;
9142;SDS011;54072;47.410;8.446;2023-04-15T12:50:02;2.53;;;1.90;;
9142;SDS011;54072;47.410;8.446;2023-04-15T12:52:30;3.03;;;2.00;;
9142;SDS011;54072;47.410;8.446;2023-04-15T12:54:57;3.40;;;2.00;;
9142;SDS011;54072;47.410;8.446;2023-04-15T12:57:25;2.00;;;1.90;;
9142;SDS011;54072;47.410;8.446;2023-04-15T12:59:53;3.10;;;2.27;;
9142;SDS011;54072;47.410;8.446;2023-04-15T13:02:22;1.93;;;1.70;;
9142;SDS011;54072;47.410;8.446;2023-04-15T13:04:50;1.83;;;1.73;;
9142;SDS011;54072;47.410;8.446;2023-04-15T13:07:18;1.73;;;1.63;;
9142;SDS011;54072;47.410;8.446;2023-04-15T13:09:45;1.90;;;1.80;;
9142;SDS011;54072;47.410;8.446;2023-04-15T13:12:13;3.00;;;1.80;;
9142;SDS011;54072;47.410;8.446;2023-04-15T13:14:41;2.23;;;2.03;;
9142;SDS011;54072;47.410;8.446;2023-04-15T13:17:09;1.90;;;1.80;;
9142;SDS011;54072;47.410;8.446;2023-04-15T13:19:38;1.57;;;1.30;;
9142;SDS011;54072;47.410;8.446;2023-04-15T13:22:06;2.53;;;2.00;;
9142;SDS011;54072;47.410;8.446;2023-04-15T13:24:34;2.70;;;1.77;;
9142;SDS011;54072;47.410;8.446;2023-04-15T13:27:02;1.50;;;1.40;;
9142;SDS011;54072;47.410;8.446;2023-04-15T13:29:30;1.27;;;1.20;;
9142;SDS011;54072;47.410;8.446;2023-04-15T13:31:57;1.40;;;1.00;;
9142;SDS011;54072;47.410;8.446;2023-04-15T13:34:26;1.13;;;1.03;;
9142;SDS011;54072;47.410;8.446;2023-04-15T13:36:55;1.10;;;1.10;;
9142;SDS011;54072;47.410;8.446;2023-04-15T13:39:23;1.30;;;1.20;;
9142;SDS011;54072;47.410;8.446;2023-04-15T13:41:50;1.33;;;1.20;;
9142;SDS011;54072;47.410;8.446;2023-04-15T13:44:18;1.60;;;1.07;;
9142;SDS011;54072;47.410;8.446;2023-04-15T13:46:47;1.40;;;1.30;;
9142;SDS011;54072;47.410;8.446;2023-04-15T13:49:14;1.57;;;1.03;;
9142;SDS011;54072;47.410;8.446;2023-04-15T13:51:42;2.20;;;1.30;;
9142;SDS011;54072;47.410;8.446;2023-04-15T13:54:10;1.70;;;1.20;;
9142;SDS011;54072;47.410;8.446;2023-04-15T13:56:38;4.13;;;1.43;;
9142;SDS011;54072;47.410;8.446;2023-04-15T13:59:06;1.30;;;1.20;;
9142;SDS011;54072;47.410;8.446;2023-04-15T14:01:33;1.60;;;1.43;;
9142;SDS011;54072;47.410;8.446;2023-04-15T14:04:01;1.40;;;1.20;;
9142;SDS011;54072;47.410;8.446;2023-04-15T14:06:29;2.33;;;1.50;;
9142;SDS011;54072;47.410;8.446;2023-04-15T14:08:57;1.87;;;1.20;;
9142;SDS011;54072;47.410;8.446;2023-04-15T14:11:26;1.27;;;1.17;;
9142;SDS011;54072;47.410;8.446;2023-04-15T14:13:55;1.73;;;1.40;;
9142;SDS011;54072;47.410;8.446;2023-04-15T14:16:22;1.40;;;1.20;;
9142;SDS011;54072;47.410;8.446;2023-04-15T14:18:50;1.60;;;1.27;;
9142;SDS011;54072;47.410;8.446;2023-04-15T14:21:17;0.90;;;0.90;;
9142;SDS011;54072;47.410;8.446;2023-04-15T14:23:45;1.27;;;1.17;;
9142;SDS011;54072;47.410;8.446;2023-04-15T14:26:13;1.10;;;1.00;;
9142;SDS011;54072;47.410;8.446;2023-04-15T14:28:42;1.47;;;0.93;;
9142;SDS011;54072;47.410;8.446;2023-04-15T14:31:10;1.10;;;1.00;;
9142;SDS011;54072;47.410;8.446;2023-04-15T14:33:37;1.80;;;1.17;;
9142;SDS011;54072;47.410;8.446;2023-04-15T14:36:05;1.20;;;0.87;;
9142;SDS011;54072;47.410;8.446;2023-04-15T14:38:33;0.97;;;0.97;;
9142;SDS011;54072;47.410;8.446;2023-04-15T14:41:03;1.00;;;0.93;;
9142;SDS011;54072;47.410;8.446;2023-04-15T14:43:31;2.33;;;1.17;;
9142;SDS011;54072;47.410;8.446;2023-04-15T14:46:00;1.77;;;1.10;;
9142;SDS011;54072;47.410;8.446;2023-04-15T14:48:27;1.43;;;1.30;;
9142;SDS011;54072;47.410;8.446;2023-04-15T14:50:55;1.43;;;0.97;;
9142;SDS011;54072;47.410;8.446;2023-04-15T14:53:22;1.57;;;1.10;;
9142;SDS011;54072;47.410;8.446;2023-04-15T14:55:50;1.13;;;1.00;;
9142;SDS011;54072;47.410;8.446;2023-04-15T14:58:17;1.77;;;1.10;;
9142;SDS011;54072;47.410;8.446;2023-04-15T15:00:45;1.00;;;1.00;;
9142;SDS011;54072;47.410;8.446;2023-04-15T15:03:14;1.50;;;1.40;;
9142;SDS011;54072;47.410;8.446;2023-04-15T15:05:42;1.70;;;0.90;;
9142;SDS011;54072;47.410;8.446;2023-04-15T15:08:10;1.63;;;0.80;;
9142;SDS011;54072;47.410;8.446;2023-04-15T15:10:38;1.47;;;0.80;;